Hozan Maru — JJ4010 — position and weather

sailwx.info

Track history (hours):
 
Tides and Currents Weather Stations Pressure Air Temp Water Temp Dewpoint Dewpoint Depression Visibility Wind Speed Wind Dir Waves Ship Positions

Hozan Maru

Last reported at 2014-Oct-01 10:04 UTC. Time now 2014-Oct-02 16:40 UTC.
Position N 34°40' E 135°26'.

Length 38 m; draft 3.6 m.

Type: Tug. MMSI: 431401501.

Date/timePositionNaut miles runAvg speedWind from/ knotsBaromVisibWave heightAir tempDewpointWater temp
2014-Oct-01 10:04N 34°40' E 135°26'611.1
2014-Oct-01 09:33N 34°35' E 135°23'4 4.1
2014-Oct-01 08:33N 34°31' E 135°24'0 0.0
2014-Oct-01 07:33N 34°31' E 135°24'0 0.0
2014-Oct-01 06:33N 34°31' E 135°24'0 0.0
2014-Oct-01 05:33N 34°31' E 135°24'0 0.0
2014-Oct-01 04:33N 34°31' E 135°24'0 0.0
2014-Oct-01 03:33N 34°31' E 135°24'1 0.6
2014-Oct-01 02:33N 34°31' E 135°23'9 9.0
2014-Oct-01 01:33N 34°40' E 135°26'0 0.0
2014-Sep-30 09:07N 34°40' E 135°26'711.6
2014-Sep-30 08:33N 34°34' E 135°22'8 8.5
2014-Sep-30 07:33N 34°26' E 135°19'6 6.0
2014-Sep-30 06:33N 34°31' E 135°23'0 0.0
2014-Sep-30 05:33N 34°31' E 135°23'0 0.0
2014-Sep-30 04:33N 34°31' E 135°23'8 8.2
2014-Sep-30 03:34N 34°39' E 135°25'2 1.7
2014-Sep-30 02:31N 34°38' E 135°27'0 0.1
2014-Sep-30 01:29N 34°38' E 135°27'0 0.0
2014-Sep-30 00:32N 34°38' E 135°27'8 8.2
2014-Sep-29 23:33N 34°31' E 135°24'3 2.6
2014-Sep-29 22:33N 34°33' E 135°22'1 1.1
2014-Sep-29 21:31N 34°34' E 135°22'7 0.6
2014-Sep-29 10:28N 34°40' E 135°26'9 8.4
2014-Sep-29 09:24N 34°31' E 135°23'1 0.7
2014-Sep-29 08:32N 34°32' E 135°23'1 1.0
2014-Sep-29 07:32N 34°33' E 135°23'3 3.4
2014-Sep-29 06:33N 34°33' E 135°27'0 0.0
2014-Sep-29 05:33N 34°33' E 135°27'0 0.0
2014-Sep-29 04:33N 34°33' E 135°27'0 0.0
2014-Sep-29 03:33N 34°33' E 135°27'0 0.0
2014-Sep-29 02:33N 34°33' E 135°27'0 0.0
2014-Sep-29 01:33N 34°33' E 135°27'3 2.5
2014-Sep-29 00:33N 34°32' E 135°24'5 4.8
2014-Sep-28 23:33N 34°37' E 135°23'4 0.1
2014-Sep-27 11:23N 34°40' E 135°26'1012.1
2014-Sep-27 10:33N 34°39' E 135°14'9 8.9
2014-Sep-27 09:33N 34°37' E 135°03'1212.1
2014-Sep-27 08:33N 34°41' E 134°49'1 0.2
2014-Sep-27 02:30N 34°40' E 134°48'2 0.6
2014-Sep-26 23:31N 34°42' E 134°50'2 0.1
2014-Sep-25 23:08N 34°40' E 134°48'2 0.1
2014-Sep-25 07:21N 34°41' E 134°50'910.2
2014-Sep-25 06:31N 34°38' E 135°00'1111.3
2014-Sep-25 05:33N 34°37' E 135°13'1211.5
2014-Sep-25 04:31N 34°40' E 135°27'1 0.0
2014-Sep-23 03:13N 34°40' E 135°26'6 9.7
2014-Sep-23 02:33N 34°33' E 135°25'1 0.7
2014-Sep-23 01:27N 34°33' E 135°25'4 4.3
2014-Sep-23 00:33N 34°33' E 135°21'4 3.9
2014-Sep-22 23:33N 34°37' E 135°23'4 0.4
2014-Sep-22 13:04N 34°40' E 135°26'1 2.2
2014-Sep-22 12:32N 34°38' E 135°26'3 2.9
2014-Sep-22 11:33N 34°37' E 135°24'1 1.0
2014-Sep-22 10:33N 34°36' E 135°24'1 0.8
2014-Sep-22 09:33N 34°37' E 135°24'  
Track history (hours):
 
Tides and Currents Weather Stations Pressure Air Temp Water Temp Dewpoint Dewpoint Depression Visibility Wind Speed Wind Dir Waves Ship Positions

Hozan Maru

Last reported at 2014-Oct-01 10:04 UTC. Time now 2014-Oct-02 16:40 UTC.
Position N 34°40' E 135°26'.

Length 38 m; draft 3.6 m.

Type: Tug. MMSI: 431401501.

Date/timePositionNaut miles runAvg speedWind from/ knotsBaromVisibWave heightAir tempDewpointWater temp
2014-Oct-01 10:04N 34°40' E 135°26'611.1
2014-Oct-01 09:33N 34°35' E 135°23'4 4.1
2014-Oct-01 08:33N 34°31' E 135°24'0 0.0
2014-Oct-01 07:33N 34°31' E 135°24'0 0.0
2014-Oct-01 06:33N 34°31' E 135°24'0 0.0
2014-Oct-01 05:33N 34°31' E 135°24'0 0.0
2014-Oct-01 04:33N 34°31' E 135°24'0 0.0
2014-Oct-01 03:33N 34°31' E 135°24'1 0.6
2014-Oct-01 02:33N 34°31' E 135°23'9 9.0
2014-Oct-01 01:33N 34°40' E 135°26'0 0.0
2014-Sep-30 09:07N 34°40' E 135°26'711.6
2014-Sep-30 08:33N 34°34' E 135°22'8 8.5
2014-Sep-30 07:33N 34°26' E 135°19'6 6.0
2014-Sep-30 06:33N 34°31' E 135°23'0 0.0
2014-Sep-30 05:33N 34°31' E 135°23'0 0.0
2014-Sep-30 04:33N 34°31' E 135°23'8 8.2
2014-Sep-30 03:34N 34°39' E 135°25'2 1.7
2014-Sep-30 02:31N 34°38' E 135°27'0 0.1
2014-Sep-30 01:29N 34°38' E 135°27'0 0.0
2014-Sep-30 00:32N 34°38' E 135°27'8 8.2
2014-Sep-29 23:33N 34°31' E 135°24'3 2.6
2014-Sep-29 22:33N 34°33' E 135°22'1 1.1
2014-Sep-29 21:31N 34°34' E 135°22'7 0.6
2014-Sep-29 10:28N 34°40' E 135°26'9 8.4
2014-Sep-29 09:24N 34°31' E 135°23'1 0.7
2014-Sep-29 08:32N 34°32' E 135°23'1 1.0
2014-Sep-29 07:32N 34°33' E 135°23'3 3.4
2014-Sep-29 06:33N 34°33' E 135°27'0 0.0
2014-Sep-29 05:33N 34°33' E 135°27'0 0.0
2014-Sep-29 04:33N 34°33' E 135°27'0 0.0
2014-Sep-29 03:33N 34°33' E 135°27'0 0.0
2014-Sep-29 02:33N 34°33' E 135°27'0 0.0
2014-Sep-29 01:33N 34°33' E 135°27'3 2.5
2014-Sep-29 00:33N 34°32' E 135°24'5 4.8
2014-Sep-28 23:33N 34°37' E 135°23'4 0.1
2014-Sep-27 11:23N 34°40' E 135°26'1012.1
2014-Sep-27 10:33N 34°39' E 135°14'9 8.9
2014-Sep-27 09:33N 34°37' E 135°03'1212.1
2014-Sep-27 08:33N 34°41' E 134°49'1 0.2
2014-Sep-27 02:30N 34°40' E 134°48'2 0.6
2014-Sep-26 23:31N 34°42' E 134°50'2 0.1
2014-Sep-25 23:08N 34°40' E 134°48'2 0.1
2014-Sep-25 07:21N 34°41' E 134°50'910.2
2014-Sep-25 06:31N 34°38' E 135°00'1111.3
2014-Sep-25 05:33N 34°37' E 135°13'1211.5
2014-Sep-25 04:31N 34°40' E 135°27'1 0.0
2014-Sep-23 03:13N 34°40' E 135°26'6 9.7
2014-Sep-23 02:33N 34°33' E 135°25'1 0.7
2014-Sep-23 01:27N 34°33' E 135°25'4 4.3
2014-Sep-23 00:33N 34°33' E 135°21'4 3.9
2014-Sep-22 23:33N 34°37' E 135°23'4 0.4
2014-Sep-22 13:04N 34°40' E 135°26'1 2.2
2014-Sep-22 12:32N 34°38' E 135°26'3 2.9
2014-Sep-22 11:33N 34°37' E 135°24'1 1.0
2014-Sep-22 10:33N 34°36' E 135°24'1 0.8
2014-Sep-22 09:33N 34°37' E 135°24'  

Dump ship's entire track history